createdAt,value
2018-04-13T00:01:35.164Z,12.20
2018-04-13T00:04:04.387Z,12.20
2018-04-13T00:06:33.849Z,12.10
2018-04-13T00:09:02.564Z,12.10
2018-04-13T00:11:30.996Z,12.10
2018-04-13T00:14:00.309Z,12.00
2018-04-13T00:16:28.936Z,11.90
2018-04-13T00:18:57.361Z,11.90
2018-04-13T00:21:25.864Z,11.90
2018-04-13T00:23:55.065Z,12.00
2018-04-13T00:26:23.773Z,12.00
2018-04-13T00:28:52.465Z,12.10
2018-04-13T00:31:20.895Z,12.10
2018-04-13T00:33:49.430Z,12.10
2018-04-13T00:36:17.906Z,12.10
2018-04-13T00:38:46.341Z,11.90
2018-04-13T00:41:15.550Z,11.70
2018-04-13T00:43:44.236Z,11.70
2018-04-13T00:46:13.209Z,11.50
2018-04-13T00:48:41.641Z,11.50
2018-04-13T00:51:10.063Z,11.50
2018-04-13T00:53:39.514Z,11.30
2018-04-13T00:56:07.937Z,11.30
2018-04-13T00:58:37.293Z,11.20
2018-04-13T01:01:05.301Z,11.10
2018-04-13T01:03:34.842Z,11.10
2018-04-13T01:06:04.347Z,11.10
2018-04-13T01:08:32.920Z,11.10
2018-04-13T01:11:01.284Z,11.10
2018-04-13T01:13:29.813Z,11.00
2018-04-13T01:15:58.252Z,11.00
2018-04-13T01:18:26.757Z,11.00
2018-04-13T01:20:55.327Z,10.90
2018-04-13T01:23:24.523Z,10.80
2018-04-13T01:25:53.176Z,10.80
2018-04-13T01:28:21.926Z,10.80
2018-04-13T01:30:51.384Z,10.70
2018-04-13T01:33:20.080Z,10.70
2018-04-13T01:35:48.634Z,10.80
2018-04-13T01:38:17.368Z,10.70
2018-04-13T01:40:45.857Z,10.70
2018-04-13T01:43:15.364Z,10.70
2018-04-13T01:45:44.098Z,10.70
2018-04-13T01:48:12.697Z,10.70
2018-04-13T01:50:41.428Z,10.70
2018-04-13T01:53:10.003Z,10.70
2018-04-13T01:55:38.105Z,10.70
2018-04-13T01:58:06.845Z,10.70
2018-04-13T02:00:35.645Z,10.70
2018-04-13T02:03:05.113Z,10.70
2018-04-13T02:05:34.314Z,10.70
2018-04-13T02:08:03.620Z,10.70
2018-04-13T02:10:32.315Z,10.70
2018-04-13T02:13:01.016Z,10.70
2018-04-13T02:15:29.686Z,10.70
2018-04-13T02:17:58.117Z,10.70
2018-04-13T02:20:26.737Z,10.70
2018-04-13T02:22:55.312Z,10.70
2018-04-13T02:25:23.797Z,10.70
2018-04-13T02:27:52.507Z,10.70
2018-04-13T02:30:21.150Z,10.60
2018-04-13T02:32:50.344Z,10.60
2018-04-13T02:35:19.048Z,10.60
2018-04-13T02:37:48.378Z,10.70
2018-04-13T02:40:16.840Z,10.60
2018-04-13T02:42:45.289Z,10.70
2018-04-13T02:45:13.994Z,10.70
2018-04-13T02:47:43.186Z,10.80
2018-04-13T02:50:12.599Z,10.80
2018-04-13T02:52:41.036Z,10.90
2018-04-13T02:55:09.465Z,10.90
2018-04-13T02:57:38.221Z,10.90
2018-04-13T03:00:06.686Z,10.90
2018-04-13T03:02:35.108Z,10.90
2018-04-13T03:05:03.470Z,10.90
2018-04-13T03:07:32.204Z,10.90
2018-04-13T03:10:01.557Z,10.90
2018-04-13T03:12:30.754Z,10.90
2018-04-13T03:14:59.657Z,10.90
2018-04-13T03:17:28.085Z,10.90
2018-04-13T03:19:56.519Z,11.00
2018-04-13T03:22:24.953Z,11.00
2018-04-13T03:24:53.450Z,11.00
2018-04-13T03:27:22.146Z,11.00
2018-04-13T03:29:50.960Z,11.10
2018-04-13T03:32:19.398Z,11.20
2018-04-13T03:34:47.901Z,11.20
2018-04-13T03:37:16.584Z,11.20
2018-04-13T03:39:45.289Z,11.20
2018-04-13T03:42:13.805Z,11.20
2018-04-13T03:44:42.317Z,11.10
2018-04-13T03:47:11.018Z,11.10
2018-04-13T03:49:40.072Z,11.00
2018-04-13T03:52:08.772Z,11.00
2018-04-13T03:54:38.318Z,11.00
2018-04-13T03:57:06.744Z,11.00
2018-04-13T03:59:35.273Z,11.00
2018-04-13T04:02:03.751Z,11.10
2018-04-13T04:04:32.550Z,11.30
2018-04-13T04:07:00.968Z,11.40
2018-04-13T04:09:29.405Z,11.40
2018-04-13T04:11:57.829Z,11.30
2018-04-13T04:14:27.054Z,11.30
2018-04-13T04:16:56.457Z,11.30
2018-04-13T04:19:36.608Z,11.20
2018-04-13T04:22:18.410Z,11.10
2018-04-13T04:24:57.995Z,11.10
2018-04-13T04:27:26.709Z,11.20
2018-04-13T04:29:55.129Z,11.30
2018-04-13T04:32:24.674Z,11.30
2018-04-13T04:34:53.104Z,11.30
2018-04-13T04:37:21.528Z,11.40
2018-04-13T04:39:50.329Z,11.40
2018-04-13T04:42:20.197Z,11.40
2018-04-13T04:44:48.885Z,11.40
2018-04-13T04:47:17.316Z,11.40
2018-04-13T04:49:46.326Z,11.50
2018-04-13T04:52:14.777Z,11.50
2018-04-13T04:54:43.480Z,11.50
2018-04-13T04:57:12.692Z,11.50
2018-04-13T04:59:41.205Z,11.50
2018-04-13T05:02:09.836Z,11.60
2018-04-13T05:04:38.549Z,11.60
2018-04-13T05:07:07.216Z,11.60
2018-04-13T05:09:36.657Z,11.70
2018-04-13T05:12:06.175Z,11.70
2018-04-13T05:14:34.842Z,11.60
2018-04-13T05:17:04.308Z,11.60
2018-04-13T05:19:32.929Z,11.50
2018-04-13T05:22:01.629Z,11.60
2018-04-13T05:24:29.829Z,11.60
2018-04-13T05:26:58.816Z,11.70
2018-04-13T05:29:27.364Z,11.80
2018-04-13T05:31:55.796Z,11.80
2018-04-13T05:34:24.497Z,11.90
2018-04-13T05:36:53.708Z,12.00
2018-04-13T05:39:22.901Z,12.10
2018-04-13T05:41:52.105Z,12.10
2018-04-13T05:44:20.811Z,12.00
2018-04-13T05:46:49.491Z,12.10
2018-04-13T05:49:18.212Z,12.10
2018-04-13T05:51:46.956Z,12.20
2018-04-13T05:54:15.654Z,12.10
2018-04-13T05:56:44.102Z,12.10
2018-04-13T05:59:12.787Z,12.10
2018-04-13T06:01:42.997Z,12.10
2018-04-13T06:04:12.212Z,12.10
2018-04-13T06:06:40.558Z,12.10
2018-04-13T06:09:08.660Z,12.20
2018-04-13T06:11:37.348Z,12.30
2018-04-13T06:14:05.784Z,12.50
2018-04-13T06:16:34.473Z,12.80
2018-04-13T06:19:03.179Z,13.00
2018-04-13T06:21:32.393Z,13.50
2018-04-13T06:24:00.761Z,13.50
2018-04-13T06:26:29.983Z,13.90
2018-04-13T06:28:58.633Z,13.90
2018-04-13T06:31:27.825Z,14.10
2018-04-13T06:33:56.525Z,14.10
2018-04-13T06:36:24.717Z,14.30
2018-04-13T06:38:53.206Z,14.60
2018-04-13T06:41:21.657Z,15.00
2018-04-13T06:43:50.251Z,15.30
2018-04-13T06:46:18.689Z,15.50
2018-04-13T06:48:47.160Z,15.80
2018-04-13T06:51:16.015Z,15.60
2018-04-13T06:53:44.643Z,15.60
2018-04-13T06:56:13.093Z,15.70
2018-04-13T06:58:41.795Z,16.00
2018-04-13T07:01:10.265Z,16.10
2018-04-13T07:03:39.616Z,16.90
2018-04-13T07:06:08.316Z,16.90
2018-04-13T07:08:37.004Z,16.90
2018-04-13T07:11:05.660Z,16.50
2018-04-13T07:13:34.955Z,16.80
2018-04-13T07:16:03.577Z,16.80
2018-04-13T07:18:33.049Z,17.50
2018-04-13T07:21:01.686Z,17.40
2018-04-13T07:23:30.697Z,17.20
2018-04-13T07:26:00.208Z,17.40
2018-04-13T07:28:28.927Z,17.40
2018-04-13T07:30:57.361Z,17.60
2018-04-13T07:33:26.053Z,17.40
2018-04-13T07:35:55.376Z,18.10
2018-04-13T07:38:24.884Z,18.60
2018-04-13T07:40:53.393Z,18.60
2018-04-13T07:43:21.827Z,18.90
2018-04-13T07:45:50.278Z,19.10
2018-04-13T07:48:18.771Z,18.30
2018-04-13T07:50:47.627Z,17.60
2018-04-13T07:53:16.285Z,17.20
2018-04-13T07:55:45.277Z,17.10
2018-04-13T07:58:13.820Z,17.80
2018-04-13T08:00:42.464Z,18.40
2018-04-13T08:03:10.884Z,18.00
2018-04-13T08:05:39.385Z,17.50
2018-04-13T08:08:08.593Z,17.30
2018-04-13T08:10:37.357Z,17.30
2018-04-13T08:13:05.992Z,17.50
2018-04-13T08:15:34.585Z,17.90
2018-04-13T08:18:03.331Z,18.10
2018-04-13T08:20:32.231Z,18.00
2018-04-13T08:23:00.944Z,17.80
2018-04-13T08:25:30.166Z,17.30
2018-04-13T08:27:58.584Z,17.30
2018-04-13T08:30:27.196Z,17.10
2018-04-13T08:32:55.642Z,17.70
2018-04-13T08:35:24.359Z,18.60
2018-04-13T08:37:53.640Z,20.20
2018-04-13T08:40:22.074Z,20.10
2018-04-13T08:42:50.279Z,20.50
2018-04-13T08:45:19.788Z,19.50
2018-04-13T08:47:48.481Z,19.40
2018-04-13T08:50:16.929Z,19.30
2018-04-13T08:52:45.558Z,18.80
2018-04-13T08:55:14.813Z,18.40
2018-04-13T08:57:43.446Z,18.30
2018-04-13T09:00:12.874Z,18.40
2018-04-13T09:02:41.787Z,18.40
2018-04-13T09:05:10.516Z,18.40
2018-04-13T09:07:38.973Z,18.20
2018-04-13T09:10:08.033Z,18.20
2018-04-13T09:12:36.771Z,18.50
2018-04-13T09:15:05.212Z,18.70
2018-04-13T09:17:33.940Z,18.80
2018-04-13T09:20:02.385Z,19.90
2018-04-13T09:22:30.991Z,21.40
2018-04-13T09:24:59.461Z,22.10
2018-04-13T09:27:28.660Z,23.00
2018-04-13T09:29:57.865Z,22.30
2018-04-13T09:32:26.561Z,22.20
2018-04-13T09:34:54.993Z,21.00
2018-04-13T09:37:24.534Z,21.10
2018-04-13T09:39:53.037Z,21.10
2018-04-13T09:42:21.569Z,21.20
2018-04-13T09:44:50.005Z,21.00
2018-04-13T09:47:18.932Z,20.40
2018-04-13T09:49:47.632Z,19.80
2018-04-13T09:52:16.325Z,19.50
2018-04-13T09:54:45.019Z,19.00
2018-04-13T09:57:13.772Z,18.80
2018-04-13T09:59:43.831Z,18.70
2018-04-13T10:02:18.159Z,18.70
2018-04-13T10:04:46.370Z,19.00
2018-04-13T10:07:14.997Z,19.30
2018-04-13T10:09:44.298Z,19.70
2018-04-13T10:12:12.742Z,19.80
2018-04-13T10:14:41.177Z,20.80
2018-04-13T10:17:10.027Z,21.00
2018-04-13T10:19:38.734Z,21.30
2018-04-13T10:22:07.164Z,21.00
2018-04-13T10:24:35.801Z,20.20
2018-04-13T10:27:04.569Z,20.30
2018-04-13T10:29:33.793Z,21.00
2018-04-13T10:32:02.449Z,21.00
2018-04-13T10:34:31.269Z,22.90
2018-04-13T10:36:59.792Z,23.90
2018-04-13T10:39:28.217Z,23.10
2018-04-13T10:41:56.808Z,22.40
2018-04-13T10:44:26.292Z,22.80
2018-04-13T10:46:55.035Z,22.80
2018-04-13T10:49:23.800Z,23.70
2018-04-13T10:51:53.157Z,24.30
2018-04-13T10:54:21.663Z,24.20
2018-04-13T10:56:50.038Z,24.30
2018-04-13T10:59:18.464Z,23.50
2018-04-13T11:01:46.888Z,22.90
2018-04-13T11:04:15.339Z,23.00
2018-04-13T11:06:43.828Z,23.60
2018-04-13T11:09:13.020Z,21.90
2018-04-13T11:11:42.228Z,20.80
2018-04-13T11:14:11.206Z,20.40
2018-04-13T11:16:39.794Z,20.40
2018-04-13T11:19:08.388Z,21.40
2018-04-13T11:21:37.169Z,23.20
2018-04-13T11:24:06.581Z,21.40
2018-04-13T11:26:35.787Z,21.30
2018-04-13T11:29:04.473Z,21.30
2018-04-13T11:31:33.847Z,23.20
2018-04-13T11:34:03.053Z,24.10
2018-04-13T11:36:32.240Z,23.70
2018-04-13T11:39:01.444Z,22.20
2018-04-13T11:41:30.647Z,20.60
2018-04-13T11:43:59.529Z,20.60
2018-04-13T11:46:28.760Z,19.00
2018-04-13T11:48:57.471Z,18.90
2018-04-13T11:51:25.905Z,18.50
2018-04-13T11:53:54.600Z,18.40
2018-04-13T11:56:23.090Z,18.20
2018-04-13T11:58:51.777Z,18.00
2018-04-13T12:01:20.164Z,17.80
2018-04-13T12:03:48.820Z,19.10
2018-04-13T12:06:17.261Z,21.00
2018-04-13T12:08:45.708Z,21.60
2018-04-13T12:11:14.145Z,20.80
2018-04-13T12:13:43.577Z,19.20
2018-04-13T12:16:12.004Z,19.10
2018-04-13T12:18:40.448Z,18.70
2018-04-13T12:21:08.860Z,18.30
2018-04-13T12:23:37.537Z,18.40
2018-04-13T12:26:06.016Z,18.40
2018-04-13T12:28:34.709Z,18.40
2018-04-13T12:31:03.455Z,18.50
2018-04-13T12:33:32.941Z,18.40
2018-04-13T12:36:01.405Z,18.40
2018-04-13T12:38:30.120Z,18.00
2018-04-13T12:40:58.708Z,17.90
2018-04-13T12:43:27.361Z,17.70
2018-04-13T12:45:56.120Z,17.70
2018-04-13T12:48:24.601Z,17.70
2018-04-13T12:50:53.284Z,17.80
2018-04-13T12:53:22.294Z,17.60
2018-04-13T12:55:51.109Z,17.50
2018-04-13T12:58:20.517Z,17.60
2018-04-13T13:00:49.177Z,17.90
2018-04-13T13:03:18.277Z,18.10
2018-04-13T13:05:47.665Z,18.40
2018-04-13T13:08:17.025Z,18.30
2018-04-13T13:10:45.465Z,18.30
2018-04-13T13:13:14.121Z,18.50
2018-04-13T13:15:42.859Z,18.70
2018-04-13T13:18:11.490Z,19.00
2018-04-13T13:20:40.014Z,19.10
2018-04-13T13:23:08.582Z,19.40
2018-04-13T13:25:37.019Z,19.60
2018-04-13T13:28:06.795Z,20.00
2018-04-13T13:30:36.256Z,20.30
2018-04-13T13:33:05.482Z,20.50
2018-04-13T13:35:34.185Z,20.40
2018-04-13T13:38:03.644Z,20.80
2018-04-13T13:40:32.477Z,20.70
2018-04-13T13:43:01.821Z,20.50
2018-04-13T13:45:30.495Z,20.50
2018-04-13T13:47:59.193Z,20.40
2018-04-13T13:50:27.817Z,20.70
2018-04-13T13:52:56.253Z,21.50
2018-04-13T13:55:24.693Z,22.20
2018-04-13T13:57:52.927Z,21.70
2018-04-13T14:00:21.815Z,21.80
2018-04-13T14:02:50.514Z,21.70
2018-04-13T14:05:19.202Z,21.70
2018-04-13T14:07:48.605Z,20.70
2018-04-13T14:10:17.296Z,20.70
2018-04-13T14:12:45.736Z,20.40
2018-04-13T14:15:14.375Z,20.50
2018-04-13T14:17:42.943Z,20.20
2018-04-13T14:20:12.405Z,20.10
2018-04-13T14:22:41.626Z,20.90
2018-04-13T14:25:10.225Z,20.80
2018-04-13T14:27:38.655Z,21.20
2018-04-13T14:30:07.380Z,21.10
2018-04-13T14:32:36.008Z,21.10
2018-04-13T14:35:04.112Z,21.00
2018-04-13T14:37:33.325Z,20.60
2018-04-13T14:40:01.409Z,20.60
2018-04-13T14:42:29.835Z,20.30
2018-04-13T14:44:59.077Z,20.80
2018-04-13T14:47:27.978Z,20.70
2018-04-13T14:49:56.821Z,20.60
2018-04-13T14:52:25.521Z,20.30
2018-04-13T14:54:54.111Z,20.40
2018-04-13T14:57:22.588Z,20.70
2018-04-13T14:59:51.424Z,20.50
2018-04-13T15:02:19.849Z,20.90
2018-04-13T15:04:49.450Z,20.70
2018-04-13T15:07:18.673Z,20.90
2018-04-13T15:09:47.959Z,20.70
2018-04-13T15:12:16.659Z,20.60
2018-04-13T15:14:46.059Z,20.10
2018-04-13T15:17:14.497Z,20.10
2018-04-13T15:19:43.075Z,20.30
2018-04-13T15:22:11.777Z,20.30
2018-04-13T15:24:39.981Z,20.00
2018-04-13T15:27:09.447Z,19.90
2018-04-13T15:29:41.507Z,20.20
2018-04-13T15:32:10.221Z,19.50
2018-04-13T15:34:38.711Z,18.70
2018-04-13T15:37:07.361Z,18.50
2018-04-13T15:39:35.889Z,18.20
2018-04-13T15:42:04.561Z,17.80
2018-04-13T15:44:33.001Z,17.60
2018-04-13T15:47:01.197Z,17.70
2018-04-13T15:49:30.427Z,17.90
2018-04-13T15:51:58.918Z,17.80
2018-04-13T15:54:27.362Z,17.40
2018-04-13T15:56:56.528Z,17.20
2018-04-13T15:59:25.743Z,17.10
2018-04-13T16:01:54.639Z,17.10
2018-04-13T16:04:24.132Z,17.00
2018-04-13T16:06:52.714Z,16.90
2018-04-13T16:09:21.953Z,16.70
2018-04-13T16:11:51.424Z,16.70
2018-04-13T16:14:20.394Z,16.40
2018-04-13T16:16:48.839Z,16.40
2018-04-13T16:19:18.302Z,16.60
2018-04-13T16:21:47.820Z,16.40
2018-04-13T16:24:16.577Z,16.40
2018-04-13T16:26:45.073Z,16.30
2018-04-13T16:29:13.644Z,16.20
2018-04-13T16:31:42.106Z,16.00
2018-04-13T16:34:10.564Z,16.00
2018-04-13T16:36:39.008Z,15.90
2018-04-13T16:39:08.490Z,15.60
2018-04-13T16:41:37.060Z,15.60
2018-04-13T16:44:05.332Z,15.50
2018-04-13T16:46:33.948Z,15.40
2018-04-13T16:49:02.656Z,15.40
2018-04-13T16:51:31.398Z,15.40
2018-04-13T16:54:00.118Z,14.90
2018-04-13T16:56:28.552Z,14.90
2018-04-13T16:58:56.990Z,14.70
2018-04-13T17:01:25.433Z,14.60
2018-04-13T17:03:54.475Z,14.40
2018-04-13T17:06:23.120Z,14.10
2018-04-13T17:08:51.559Z,13.90
2018-04-13T17:11:20.252Z,13.80
2018-04-13T17:13:48.861Z,13.50
2018-04-13T17:16:17.333Z,13.50
2018-04-13T17:18:45.702Z,13.40
2018-04-13T17:21:14.897Z,13.10
2018-04-13T17:23:44.089Z,12.90
2018-04-13T17:26:12.590Z,12.90
2018-04-13T17:28:41.241Z,12.70
2018-04-13T17:31:09.440Z,12.70
2018-04-13T17:33:38.159Z,12.50
2018-04-13T17:36:07.329Z,12.40
2018-04-13T17:38:36.516Z,12.40
2018-04-13T17:41:05.111Z,12.40
2018-04-13T17:43:34.335Z,12.30
2018-04-13T17:46:02.760Z,12.20
2018-04-13T17:48:31.372Z,12.10
2018-04-13T17:50:59.811Z,12.10
2018-04-13T17:53:28.404Z,12.10
2018-04-13T17:55:56.852Z,12.00
2018-04-13T17:58:25.778Z,12.00
2018-04-13T18:00:54.208Z,11.80
2018-04-13T18:03:22.852Z,11.80
2018-04-13T18:05:52.053Z,11.80
2018-04-13T18:08:20.421Z,11.70
2018-04-13T18:10:49.765Z,11.70
2018-04-13T18:13:18.435Z,11.70
2018-04-13T18:15:46.764Z,11.80
2018-04-13T18:18:15.200Z,11.80
2018-04-13T18:20:43.628Z,11.90
2018-04-13T18:23:11.866Z,11.90
2018-04-13T18:25:40.778Z,11.90
2018-04-13T18:28:09.480Z,11.90
2018-04-13T18:30:37.923Z,12.00
2018-04-13T18:33:06.036Z,12.00
2018-04-13T18:35:34.481Z,12.00
2018-04-13T18:38:03.143Z,12.10
2018-04-13T18:40:32.431Z,12.00
2018-04-13T18:43:00.862Z,12.00
2018-04-13T18:45:29.324Z,12.10
2018-04-13T18:47:58.029Z,12.00
2018-04-13T18:50:26.497Z,12.00
2018-04-13T18:52:54.917Z,11.80
2018-04-13T18:55:24.128Z,11.60
2018-04-13T18:57:52.589Z,11.60
2018-04-13T19:00:21.310Z,11.60
2018-04-13T19:02:49.752Z,11.50
2018-04-13T19:05:18.944Z,11.40
2018-04-13T19:07:47.648Z,11.30
2018-04-13T19:10:16.365Z,11.30
2018-04-13T19:12:44.973Z,11.20
2018-04-13T19:15:13.677Z,11.20
2018-04-13T19:17:42.397Z,11.20
2018-04-13T19:20:10.765Z,11.10
2018-04-13T19:22:39.972Z,11.00
2018-04-13T19:25:08.616Z,10.90
2018-04-13T19:27:37.933Z,10.90
2018-04-13T19:30:07.236Z,10.70
2018-04-13T19:32:36.437Z,10.60
2018-04-13T19:35:05.044Z,10.60
2018-04-13T19:37:33.468Z,10.50
2018-04-13T19:40:02.148Z,10.50
2018-04-13T19:42:30.582Z,10.50
2018-04-13T19:44:59.017Z,10.40
2018-04-13T19:47:27.662Z,10.40
2018-04-13T19:49:57.033Z,10.30
2018-04-13T19:52:25.465Z,10.30
2018-04-13T19:54:54.263Z,10.30
2018-04-13T19:57:22.802Z,10.40
2018-04-13T19:59:51.492Z,10.30
2018-04-13T20:02:20.224Z,10.30
2018-04-13T20:04:48.958Z,10.30
2018-04-13T20:07:17.387Z,10.40
2018-04-13T20:09:45.824Z,10.40
2018-04-13T20:12:13.625Z,10.40
2018-04-13T20:14:42.337Z,10.40
2018-04-13T20:17:11.533Z,10.50
2018-04-13T20:19:40.729Z,10.50
2018-04-13T20:22:09.930Z,10.60
2018-04-13T20:24:39.140Z,10.50
2018-04-13T20:27:08.605Z,10.60
2018-04-13T20:29:36.809Z,10.60
2018-04-13T20:32:05.965Z,10.70
2018-04-13T20:34:35.554Z,10.70
2018-04-13T20:37:04.097Z,10.70
2018-04-13T20:39:33.383Z,10.60
2018-04-13T20:42:02.587Z,10.60
2018-04-13T20:44:31.293Z,10.60
2018-04-13T20:46:59.879Z,10.70
2018-04-13T20:49:28.308Z,10.70
2018-04-13T20:51:57.246Z,10.70
2018-04-13T20:54:25.689Z,10.70
2018-04-13T20:56:54.861Z,10.50
2018-04-13T20:59:23.563Z,10.60
2018-04-13T21:01:52.280Z,10.50
2018-04-13T21:04:20.708Z,10.50
2018-04-13T21:06:49.406Z,10.50
2018-04-13T21:09:17.600Z,10.50
2018-04-13T21:11:46.152Z,10.40
2018-04-13T21:14:14.848Z,10.30
2018-04-13T21:16:43.383Z,10.30
2018-04-13T21:19:11.809Z,10.20
2018-04-13T21:21:40.519Z,10.20
2018-04-13T21:24:10.016Z,10.10
2018-04-13T21:26:38.476Z,10.10
2018-04-13T21:29:07.011Z,10.00
2018-04-13T21:31:35.588Z,10.00
2018-04-13T21:34:04.317Z,10.10
2018-04-13T21:36:32.860Z,10.10
2018-04-13T21:39:01.477Z,10.00
2018-04-13T21:41:29.905Z,10.10
2018-04-13T21:43:58.577Z,10.10
2018-04-13T21:46:27.245Z,10.10
2018-04-13T21:48:56.033Z,10.10
2018-04-13T21:51:25.449Z,10.10
2018-04-13T21:53:54.665Z,10.00
2018-04-13T21:56:23.740Z,10.00
2018-04-13T21:58:52.457Z,10.00
2018-04-13T22:01:21.108Z,10.00
2018-04-13T22:03:50.407Z,9.80
2018-04-13T22:06:19.597Z,9.70
2018-04-13T22:08:48.122Z,9.70
2018-04-13T22:11:16.862Z,9.60
2018-04-13T22:13:46.537Z,9.50
2018-04-13T22:16:14.993Z,9.50
2018-04-13T22:18:44.249Z,9.30
2018-04-13T22:21:12.757Z,9.30
2018-04-13T22:23:41.189Z,9.20
2018-04-13T22:26:09.873Z,9.10
2018-04-13T22:28:39.192Z,9.10
2018-04-13T22:31:07.916Z,9.10
2018-04-13T22:33:37.271Z,9.00
2018-04-13T22:36:05.690Z,9.00
2018-04-13T22:38:34.377Z,9.10
2018-04-13T22:41:02.846Z,9.20
2018-04-13T22:43:31.277Z,9.10
2018-04-13T22:45:59.729Z,9.10
2018-04-13T22:48:28.379Z,9.10
2018-04-13T22:50:57.564Z,9.10
2018-04-13T22:53:26.279Z,9.10
2018-04-13T22:55:54.797Z,9.00
2018-04-13T22:58:23.224Z,9.00
2018-04-13T23:00:51.726Z,9.00
2018-04-13T23:03:20.276Z,9.00
2018-04-13T23:05:48.856Z,8.90
2018-04-13T23:08:18.089Z,8.90
2018-04-13T23:10:47.360Z,8.80
2018-04-13T23:13:16.559Z,8.80
2018-04-13T23:15:45.757Z,8.70
2018-04-13T23:18:14.571Z,8.60
2018-04-13T23:20:43.002Z,8.60
2018-04-13T23:23:11.633Z,8.50
2018-04-13T23:25:40.396Z,8.40
2018-04-13T23:28:09.580Z,8.50
2018-04-13T23:30:39.008Z,8.50
2018-04-13T23:33:07.442Z,8.40
2018-04-13T23:35:36.145Z,8.40
2018-04-13T23:38:04.852Z,8.40
2018-04-13T23:40:34.044Z,8.40
2018-04-13T23:43:03.042Z,8.40
2018-04-13T23:45:31.491Z,8.50
2018-04-13T23:48:00.222Z,8.40
2018-04-13T23:50:28.648Z,8.40
2018-04-13T23:52:57.134Z,8.40
2018-04-13T23:55:25.835Z,8.40
2018-04-13T23:57:55.026Z,8.30
